Time;durP1;ratioP1;P1;durP2;ratioP2;P2;SDS_P1;SDS_P2;PMS_P1;PMS_P2;Temp;Humidity;BMP_temperature;BMP_pressure;BME280_temperature;BME280_humidity;BME280_pressure;Samples;Min_cycle;Max_cycle;Signal;HPM_P1;HPM_P2
2022/07/07 00:02:21;;;;;;;5.97;3.28;;;18.80;99.90;;;;;;5032581;28;20057;-33
2022/07/07 00:04:47;;;;;;;5.93;3.97;;;18.80;99.90;;;;;;5032829;28;21387;-32
2022/07/07 00:07:13;;;;;;;5.40;3.75;;;18.80;99.90;;;;;;5032765;28;20515;-33
2022/07/07 00:09:39;;;;;;;6.22;3.22;;;18.80;99.90;;;;;;5033537;28;20026;-30
2022/07/07 00:12:05;;;;;;;4.82;3.80;;;18.70;99.90;;;;;;5015686;28;20076;-29
2022/07/07 00:14:31;;;;;;;7.30;3.58;;;18.70;99.90;;;;;;5030371;28;20030;-32
2022/07/07 00:16:57;;;;;;;4.65;3.60;;;18.70;99.90;;;;;;5031653;28;20398;-40
2022/07/07 00:19:23;;;;;;;5.22;3.25;;;18.70;99.90;;;;;;5034498;28;20588;-39
2022/07/07 00:21:49;;;;;;;6.15;3.95;;;18.80;99.90;;;;;;5033998;28;20112;-40
2022/07/07 00:24:15;;;;;;;4.43;3.50;;;18.80;99.90;;;;;;5031584;28;20043;-39
2022/07/07 00:26:40;;;;;;;6.75;3.35;;;18.80;99.90;;;;;;5020287;28;20029;-39
2022/07/07 00:29:06;;;;;;;8.73;3.75;;;18.80;99.90;;;;;;5034724;28;20033;-38
2022/07/07 00:31:32;;;;;;;6.32;3.45;;;18.80;99.90;;;;;;5034244;28;20473;-40
2022/07/07 00:33:58;;;;;;;10.45;4.65;;;18.80;99.90;;;;;;5033425;28;20041;-40
2022/07/07 00:36:24;;;;;;;6.15;3.70;;;18.80;99.90;;;;;;5033054;28;20052;-40
2022/07/07 00:38:49;;;;;;;7.30;2.72;;;18.80;99.90;;;;;;5034008;28;20123;-39
2022/07/07 00:41:15;;;;;;;3.53;2.53;;;18.80;99.90;;;;;;5030546;28;20029;-39
2022/07/07 00:43:42;;;;;;;3.95;2.38;;;18.80;99.90;;;;;;5032027;28;20040;-38
2022/07/07 00:46:08;;;;;;;2.97;2.00;;;18.90;99.90;;;;;;5034342;28;20489;-39
2022/07/07 00:48:36;;;;;;;2.13;1.70;;;18.80;99.90;;;;;;5033314;28;20279;-41
2022/07/07 00:51:04;;;;;;;3.90;1.80;;;18.90;99.90;;;;;;5030982;28;20029;-37
2022/07/07 00:53:30;;;;;;;3.50;1.70;;;18.90;99.90;;;;;;5015123;28;20397;-32
2022/07/07 00:55:56;;;;;;;7.30;1.42;;;18.90;99.90;;;;;;5020028;28;20021;-30
2022/07/07 00:58:22;;;;;;;4.88;1.42;;;18.90;99.90;;;;;;5033567;28;20405;-34
2022/07/07 01:00:48;;;;;;;7.43;1.40;;;18.90;99.90;;;;;;5033011;28;20034;-35
2022/07/07 01:03:14;;;;;;;3.90;1.25;;;18.90;99.90;;;;;;5033137;28;20373;-35
2022/07/07 01:05:40;;;;;;;3.45;1.23;;;18.90;99.90;;;;;;5032385;28;20032;-32
2022/07/07 01:08:08;;;;;;;1.42;0.85;;;18.90;99.90;;;;;;5030660;28;20022;-34
2022/07/07 01:10:34;;;;;;;8.10;1.40;;;18.80;99.90;;;;;;5032961;28;20444;-33
2022/07/07 01:13:04;;;;;;;3.40;1.27;;;18.90;99.90;;;;;;5027877;28;20136;-33
2022/07/07 01:15:30;;;;;;;4.78;1.42;;;18.80;99.90;;;;;;5033830;28;20503;-30
2022/07/07 01:17:56;;;;;;;3.55;1.25;;;18.70;99.90;;;;;;5031208;28;20534;-31
2022/07/07 01:20:22;;;;;;;4.30;1.40;;;18.70;99.90;;;;;;5036136;28;20026;-35
2022/07/07 01:22:52;;;;;;;5.95;1.70;;;18.70;99.90;;;;;;5030293;28;20026;-33
2022/07/07 01:25:18;;;;;;;2.50;1.35;;;18.60;99.90;;;;;;5029227;28;20455;-30
2022/07/07 01:27:44;;;;;;;1.67;1.10;;;18.60;99.90;;;;;;5026832;28;20111;-32
2022/07/07 01:30:10;;;;;;;8.40;2.95;;;18.50;99.90;;;;;;5030128;28;20013;-30
2022/07/07 01:32:36;;;;;;;7.20;1.00;;;18.40;99.90;;;;;;5030582;28;20522;-35
2022/07/07 01:37:47;;;;;;;4.88;0.90;;;18.20;99.90;;;;;;5031219;28;20044;-30
2022/07/07 01:40:12;;;;;;;4.57;0.98;;;18.10;99.90;;;;;;5033285;28;20037;-32
2022/07/07 01:42:38;;;;;;;2.25;1.20;;;17.90;99.90;;;;;;5012398;28;20038;-31
2022/07/07 01:45:04;;;;;;;5.45;1.60;;;17.50;99.90;;;;;;5013467;28;20485;-37
2022/07/07 01:47:30;;;;;;;3.90;1.05;;;17.40;99.90;;;;;;5032667;28;20397;-39
2022/07/07 01:49:56;;;;;;;1.45;1.17;;;17.40;99.90;;;;;;5032563;28;20075;-38
2022/07/07 01:52:21;;;;;;;2.15;1.10;;;17.30;99.90;;;;;;5008213;28;20464;-38
2022/07/07 01:57:31;;;;;;;1.77;0.98;;;17.20;99.90;;;;;;5032861;28;20408;-39
2022/07/07 01:59:56;;;;;;;3.75;1.63;;;17.20;99.90;;;;;;5032408;28;20025;-39
2022/07/07 02:02:22;;;;;;;3.15;1.17;;;17.20;99.90;;;;;;5029432;28;20021;-39
2022/07/07 02:04:48;;;;;;;2.70;1.02;;;17.20;99.90;;;;;;5031286;28;20110;-38
2022/07/07 02:07:13;;;;;;;2.70;1.20;;;17.30;99.90;;;;;;5029806;28;20044;-60
2022/07/07 02:09:39;;;;;;;1.38;0.95;;;17.30;99.90;;;;;;5029217;28;20485;-38
2022/07/07 02:12:05;;;;;;;4.47;1.35;;;17.40;99.90;;;;;;5029778;28;20026;-40
2022/07/07 02:14:31;;;;;;;3.45;1.13;;;17.40;99.90;;;;;;5029629;28;20060;-39
2022/07/07 02:16:57;;;;;;;4.68;1.27;;;17.50;99.90;;;;;;5030147;28;20022;-45
2022/07/07 02:19:23;;;;;;;4.53;1.33;;;17.50;99.90;;;;;;5030841;28;20035;-39
2022/07/07 02:21:49;;;;;;;1.40;1.20;;;17.50;99.90;;;;;;5034983;28;20069;-38
2022/07/07 02:24:14;;;;;;;1.95;1.50;;;17.50;99.90;;;;;;5033944;28;20595;-38
2022/07/07 02:26:40;;;;;;;2.47;1.60;;;17.40;99.90;;;;;;5034300;28;20036;-38
2022/07/07 02:29:06;;;;;;;1.88;1.40;;;17.40;99.90;;;;;;5033206;28;20017;-39
2022/07/07 02:31:31;;;;;;;6.22;2.88;;;17.30;99.90;;;;;;5034883;28;20030;-36
2022/07/07 02:33:57;;;;;;;3.47;1.90;;;17.20;99.90;;;;;;5023925;28;20478;-40
2022/07/07 02:36:23;;;;;;;1.92;1.70;;;17.10;99.90;;;;;;5024876;28;20048;-39
2022/07/07 02:38:50;;;;;;;3.90;2.50;;;17.10;99.90;;;;;;5033122;28;20412;-39
2022/07/07 02:41:16;;;;;;;1.50;1.40;;;17.20;99.90;;;;;;5015033;28;20115;-40
2022/07/07 02:43:42;;;;;;;2.75;1.75;;;17.10;99.90;;;;;;5034901;28;20221;-38
2022/07/07 02:46:07;;;;;;;3.70;2.00;;;17.00;99.90;;;;;;4995709;28;1088568;-37
2022/07/07 02:48:33;;;;;;;1.92;1.80;;;16.90;99.90;;;;;;5035870;28;20057;-38
2022/07/07 02:50:59;;;;;;;1.98;1.88;;;16.90;99.90;;;;;;5035845;28;20029;-38
2022/07/07 02:53:24;;;;;;;3.55;1.85;;;16.90;99.90;;;;;;5036487;28;20041;-39
2022/07/07 02:55:50;;;;;;;2.38;2.03;;;16.90;99.90;;;;;;5034556;28;20366;-39
2022/07/07 02:58:19;;;;;;;2.83;2.13;;;16.90;99.90;;;;;;5035653;28;20465;-40
2022/07/07 03:00:46;;;;;;;3.15;2.15;;;16.80;99.90;;;;;;5035478;28;20488;-57
2022/07/07 03:03:11;;;;;;;6.05;2.40;;;16.90;99.90;;;;;;5035328;28;20555;-38
2022/07/07 03:05:37;;;;;;;3.63;2.30;;;16.90;99.90;;;;;;5033081;28;20064;-37
2022/07/07 03:08:03;;;;;;;3.78;2.25;;;16.80;99.90;;;;;;5035968;28;20029;-38
2022/07/07 03:10:29;;;;;;;6.25;2.50;;;16.90;99.90;;;;;;5036141;28;20035;-37
2022/07/07 03:12:55;;;;;;;7.05;2.97;;;16.90;99.90;;;;;;5035419;28;20026;-39
2022/07/07 03:15:20;;;;;;;2.63;1.75;;;16.80;99.90;;;;;;5034271;28;20032;-36
2022/07/07 03:17:48;;;;;;;10.40;2.83;;;16.90;99.90;;;;;;5016522;28;20472;-38
2022/07/07 03:20:15;;;;;;;8.52;3.13;;;16.80;99.90;;;;;;5032170;28;20060;-38
2022/07/07 03:22:41;;;;;;;5.95;2.15;;;16.80;99.90;;;;;;5035909;28;20029;-37
2022/07/07 03:25:09;;;;;;;3.47;2.13;;;16.80;99.90;;;;;;5035945;28;20049;-39
2022/07/07 03:27:35;;;;;;;5.20;2.47;;;16.70;99.90;;;;;;5034410;28;20029;-39
2022/07/07 03:30:03;;;;;;;7.28;1.75;;;16.70;99.90;;;;;;5035457;28;20520;-40
2022/07/07 03:32:29;;;;;;;5.22;1.38;;;16.60;99.90;;;;;;5034457;28;20370;-39
2022/07/07 03:34:54;;;;;;;11.07;2.00;;;16.60;99.90;;;;;;5034866;28;20109;-39
2022/07/07 03:37:20;;;;;;;6.35;1.40;;;16.60;99.90;;;;;;5032411;28;20040;-39
2022/07/07 03:39:45;;;;;;;4.20;1.15;;;16.60;99.90;;;;;;5035537;28;20022;-38
2022/07/07 03:42:11;;;;;;;8.35;1.08;;;16.60;99.90;;;;;;5033046;28;20034;-38
2022/07/07 03:44:37;;;;;;;1.98;0.90;;;16.60;99.90;;;;;;5017770;28;20029;-39
2022/07/07 03:47:03;;;;;;;9.32;1.55;;;16.50;99.90;;;;;;5008690;28;20049;-39
2022/07/07 03:49:29;;;;;;;2.50;1.48;;;16.50;99.90;;;;;;5015732;28;20022;-39
2022/07/07 03:51:55;;;;;;;6.85;1.75;;;16.60;99.90;;;;;;5030536;28;20086;-39
2022/07/07 03:54:20;;;;;;;3.17;1.17;;;16.50;99.90;;;;;;5035434;28;20029;-39
2022/07/07 03:56:46;;;;;;;2.92;1.17;;;16.50;99.90;;;;;;5033534;28;20033;-46
2022/07/07 03:59:12;;;;;;;6.63;0.80;;;16.50;99.90;;;;;;5033350;28;20036;-39
2022/07/07 04:01:37;;;;;;;3.63;0.70;;;16.50;99.90;;;;;;5035188;28;20489;-39
2022/07/07 04:04:05;;;;;;;8.55;1.70;;;16.50;99.90;;;;;;5014834;28;20034;-39
2022/07/07 04:06:31;;;;;;;2.95;1.20;;;16.50;99.90;;;;;;5014530;28;20485;-38
2022/07/07 04:08:58;;;;;;;5.82;1.35;;;16.40;99.90;;;;;;5035398;28;20018;-40
2022/07/07 04:11:23;;;;;;;4.10;1.13;;;16.40;99.90;;;;;;5034435;28;20033;-38
2022/07/07 04:13:49;;;;;;;1.63;0.90;;;16.50;99.90;;;;;;5035053;28;20025;-38
2022/07/07 04:16:15;;;;;;;6.57;1.55;;;16.40;99.90;;;;;;5030961;28;20035;-40
2022/07/07 04:18:41;;;;;;;5.40;0.90;;;16.40;99.90;;;;;;5024075;28;20029;-37
2022/07/07 04:21:06;;;;;;;1.25;0.75;;;16.40;99.90;;;;;;5030319;28;20496;-58
2022/07/07 04:23:32;;;;;;;8.50;1.20;;;16.40;99.90;;;;;;5014785;28;20481;-36
2022/07/07 04:25:58;;;;;;;3.67;0.80;;;16.40;99.90;;;;;;5034805;28;20068;-37
2022/07/07 04:28:23;;;;;;;5.97;1.00;;;16.40;99.90;;;;;;5016888;28;20091;-38
2022/07/07 04:30:49;;;;;;;9.55;2.28;;;16.50;99.90;;;;;;5033824;28;20493;-38
2022/07/07 04:33:14;;;;;;;5.68;1.27;;;16.50;99.90;;;;;;5032793;28;20022;-35
2022/07/07 04:35:40;;;;;;;6.15;1.02;;;16.50;99.90;;;;;;5033555;28;20033;-37
2022/07/07 04:38:06;;;;;;;13.20;1.25;;;16.40;99.90;;;;;;5031920;28;20022;-39
2022/07/07 04:40:31;;;;;;;8.50;1.38;;;16.40;99.90;;;;;;5034166;28;20034;-37
2022/07/07 04:42:57;;;;;;;5.72;1.10;;;16.40;99.90;;;;;;5033288;28;20041;-39
2022/07/07 04:45:23;;;;;;;4.03;0.90;;;16.30;99.90;;;;;;5034218;28;20125;-37
2022/07/07 04:47:48;;;;;;;7.60;1.05;;;16.30;99.90;;;;;;5032221;28;20021;-33
2022/07/07 04:50:14;;;;;;;11.30;0.98;;;16.30;99.90;;;;;;5032018;28;20025;-32
2022/07/07 04:52:40;;;;;;;3.80;0.90;;;16.20;99.90;;;;;;5033201;28;20029;-33
2022/07/07 04:55:08;;;;;;;4.85;0.77;;;16.30;99.90;;;;;;5034217;28;20096;-35
2022/07/07 04:57:34;;;;;;;6.82;0.90;;;16.30;99.90;;;;;;5031570;28;20040;-34
2022/07/07 05:00:00;;;;;;;7.95;1.25;;;16.20;99.90;;;;;;5033085;28;20029;-32
2022/07/07 05:02:26;;;;;;;5.20;1.00;;;16.20;99.90;;;;;;5032412;28;20067;-33
2022/07/07 05:04:52;;;;;;;8.90;1.48;;;16.30;99.90;;;;;;5033073;28;20021;-48
2022/07/07 05:07:20;;;;;;;4.97;0.93;;;16.20;99.90;;;;;;5033128;28;20033;-37
2022/07/07 05:09:46;;;;;;;7.13;1.25;;;16.20;99.90;;;;;;5032336;28;20022;-37
2022/07/07 05:12:12;;;;;;;8.23;1.05;;;16.20;99.90;;;;;;5030598;28;20037;-34
2022/07/07 05:14:37;;;;;;;7.63;0.98;;;16.20;99.90;;;;;;5033944;28;20021;-47
2022/07/07 05:17:03;;;;;;;6.65;1.20;;;16.30;99.90;;;;;;5032043;28;20504;-38
2022/07/07 05:19:28;;;;;;;12.68;1.70;;;16.30;99.90;;;;;;5032602;28;20029;-44
2022/07/07 05:21:55;;;;;;;10.32;1.98;;;16.20;99.90;;;;;;5014522;28;20065;-37
2022/07/07 05:24:21;;;;;;;7.22;0.90;;;16.30;99.90;;;;;;5033030;28;20033;-37
2022/07/07 05:26:47;;;;;;;4.22;1.30;;;16.20;99.90;;;;;;5032219;28;20485;-38
2022/07/07 05:29:13;;;;;;;12.05;1.63;;;16.30;99.90;;;;;;5032415;28;20056;-37
2022/07/07 05:31:39;;;;;;;6.90;1.13;;;16.30;99.90;;;;;;5032764;28;20029;-37
2022/07/07 05:34:04;;;;;;;8.65;1.50;;;16.30;99.90;;;;;;5031979;28;20036;-39
2022/07/07 05:36:32;;;;;;;10.57;2.17;;;16.40;99.90;;;;;;5031529;28;20033;-39
2022/07/07 05:38:57;;;;;;;6.38;0.93;;;16.40;99.90;;;;;;5033452;28;20022;-37
2022/07/07 05:41:23;;;;;;;13.98;1.95;;;16.50;99.90;;;;;;5028903;28;20393;-58
2022/07/07 05:43:49;;;;;;;11.50;1.25;;;16.50;99.90;;;;;;5032007;28;20021;-38
2022/07/07 05:46:14;;;;;;;6.63;1.38;;;16.50;99.90;;;;;;5031530;28;20505;-38
2022/07/07 05:48:40;;;;;;;8.20;1.10;;;16.40;99.90;;;;;;5029276;28;20029;-39
2022/07/07 05:51:06;;;;;;;11.18;0.77;;;16.10;99.90;;;;;;5031284;28;20025;-30
2022/07/07 05:53:31;;;;;;;6.10;1.05;;;16.00;99.90;;;;;;5028867;28;20500;-32
2022/07/07 05:55:57;;;;;;;10.63;1.17;;;15.90;99.90;;;;;;5029921;28;20036;-31
2022/07/07 05:58:23;;;;;;;3.40;0.75;;;15.90;99.90;;;;;;5033226;28;20124;-33
2022/07/07 06:00:49;;;;;;;6.35;0.80;;;15.90;99.90;;;;;;5032028;28;20025;-35
2022/07/07 06:03:15;;;;;;;9.52;0.73;;;16.10;99.90;;;;;;5031800;28;20026;-35
2022/07/07 06:08:25;;;;;;;3.33;0.57;;;16.40;99.90;;;;;;5031373;28;20057;-34
2022/07/07 06:10:50;;;;;;;8.02;0.80;;;16.40;99.90;;;;;;5032322;28;20425;-47
2022/07/07 06:13:16;;;;;;;2.92;0.70;;;16.60;99.90;;;;;;5031493;28;20017;-37
2022/07/07 06:15:41;;;;;;;2.72;0.80;;;16.60;99.90;;;;;;5014387;28;20528;-39
2022/07/07 06:18:07;;;;;;;6.20;1.13;;;16.70;99.90;;;;;;5028236;28;20470;-37
2022/07/07 06:20:33;;;;;;;7.13;1.38;;;16.80;99.90;;;;;;5032308;28;20556;-39
2022/07/07 06:22:58;;;;;;;7.35;1.17;;;17.20;99.90;;;;;;5032139;28;20026;-38
2022/07/07 06:25:26;;;;;;;8.25;0.90;;;17.50;99.90;;;;;;5032261;28;20079;-39
2022/07/07 06:27:51;;;;;;;4.60;1.45;;;17.40;99.90;;;;;;5032440;28;20478;-33
2022/07/07 06:30:17;;;;;;;1.80;0.90;;;17.10;99.90;;;;;;5032144;28;20037;-31
2022/07/07 06:32:43;;;;;;;7.93;1.40;;;16.80;99.90;;;;;;5030812;28;20029;-36
2022/07/07 06:37:53;;;;;;;4.72;0.93;;;16.80;99.90;;;;;;5033140;28;20115;-32
2022/07/07 06:40:19;;;;;;;3.33;0.60;;;16.50;99.90;;;;;;5031120;28;20014;-35
2022/07/07 06:42:45;;;;;;;6.28;1.15;;;16.50;99.90;;;;;;5034796;28;20021;-38
2022/07/07 06:45:11;;;;;;;2.40;0.80;;;16.50;99.90;;;;;;5033923;28;20113;-36
2022/07/07 06:47:36;;;;;;;7.10;1.33;;;16.60;99.90;;;;;;5032000;28;20022;-32
2022/07/07 06:50:02;;;;;;;4.32;0.93;;;17.30;99.90;;;;;;5032956;28;20021;-47
2022/07/07 06:52:28;;;;;;;8.70;1.20;;;17.80;99.90;;;;;;5031543;28;20128;-39
2022/07/07 06:54:53;;;;;;;1.77;0.60;;;17.60;99.90;;;;;;5031097;28;20034;-37
2022/07/07 06:57:19;;;;;;;5.20;1.00;;;17.20;99.90;;;;;;5031794;28;20036;-36
2022/07/07 06:59:44;;;;;;;4.10;1.10;;;17.00;99.90;;;;;;5028165;28;20096;-36
2022/07/07 07:02:10;;;;;;;3.33;1.10;;;16.70;99.90;;;;;;5031779;28;20025;-37
2022/07/07 07:04:36;;;;;;;6.75;1.08;;;16.60;99.90;;;;;;5032015;28;20057;-38
2022/07/07 07:07:01;;;;;;;6.45;1.05;;;16.60;99.90;;;;;;5033530;28;20412;-36
2022/07/07 07:09:27;;;;;;;1.95;0.95;;;17.10;99.90;;;;;;5033850;28;20112;-31
2022/07/07 07:11:54;;;;;;;5.00;1.30;;;18.30;99.90;;;;;;5045003;28;20033;-37
2022/07/07 07:14:22;;;;;;;3.30;1.02;;;18.90;99.90;;;;;;5039949;28;20033;-37
2022/07/07 07:16:48;;;;;;;3.70;0.80;;;19.40;99.90;;;;;;5032519;28;20029;-51
2022/07/07 07:19:14;;;;;;;3.08;1.02;;;19.60;99.90;;;;;;5035217;28;20034;-38
2022/07/07 07:21:40;;;;;;;6.50;1.05;;;19.20;99.90;;;;;;5036177;28;20017;-38
2022/07/07 07:24:06;;;;;;;2.80;0.82;;;18.50;99.90;;;;;;5016900;28;20397;-33
2022/07/07 07:26:31;;;;;;;6.25;0.77;;;17.80;99.90;;;;;;5033007;28;20037;-32
2022/07/07 07:28:57;;;;;;;4.90;0.93;;;17.30;99.90;;;;;;5033003;28;20023;-38
2022/07/07 07:31:23;;;;;;;2.60;1.08;;;17.00;99.90;;;;;;5035035;28;20109;-36
2022/07/07 07:33:48;;;;;;;4.57;0.70;;;16.90;99.90;;;;;;5035787;28;20121;-37
2022/07/07 07:36:14;;;;;;;5.20;0.57;;;16.80;99.90;;;;;;5032663;28;20036;-51
2022/07/07 07:38:40;;;;;;;3.88;0.80;;;16.90;99.90;;;;;;5035586;28;20021;-38
2022/07/07 07:41:07;;;;;;;1.20;0.88;;;17.00;99.90;;;;;;5035492;28;20100;-36
2022/07/07 07:43:34;;;;;;;8.32;1.33;;;17.10;99.90;;;;;;5035862;28;20022;-38
2022/07/07 07:46:00;;;;;;;4.75;1.05;;;17.20;99.90;;;;;;5031887;28;20498;-36
2022/07/07 07:48:25;;;;;;;2.97;0.68;;;17.20;99.90;;;;;;5032805;28;20105;-36
2022/07/07 07:50:51;;;;;;;2.90;0.55;;;17.50;99.90;;;;;;5031595;28;20033;-34
2022/07/07 07:53:17;;;;;;;7.03;1.02;;;17.70;99.90;;;;;;5010224;28;20064;-37
2022/07/07 07:55:44;;;;;;;6.45;0.60;;;17.70;99.90;;;;;;5033003;28;20120;-37
2022/07/07 07:58:10;;;;;;;3.78;0.65;;;17.90;99.90;;;;;;5035150;28;20036;-38
2022/07/07 08:00:36;;;;;;;0.95;0.52;;;18.00;99.90;;;;;;5033674;28;20037;-53
2022/07/07 08:03:02;;;;;;;6.90;0.73;;;18.00;99.90;;;;;;5034217;28;20082;-37
2022/07/07 08:05:28;;;;;;;4.80;0.80;;;17.90;99.90;;;;;;5033722;28;20025;-38
2022/07/07 08:07:54;;;;;;;6.75;1.30;;;17.90;99.90;;;;;;5032431;28;20048;-37
2022/07/07 08:10:19;;;;;;;3.33;0.60;;;17.90;99.90;;;;;;5030125;28;20018;-39
2022/07/07 08:12:47;;;;;;;5.82;0.68;;;17.90;99.90;;;;;;5031454;28;20040;-38
2022/07/07 08:15:14;;;;;;;2.45;0.63;;;18.00;99.90;;;;;;5030008;28;20052;-33
2022/07/07 08:17:40;;;;;;;5.43;0.70;;;18.20;99.90;;;;;;5033979;28;20494;-47
2022/07/07 08:20:06;;;;;;;3.08;0.60;;;18.00;99.90;;;;;;5033104;28;20057;-37
2022/07/07 08:22:31;;;;;;;2.60;0.50;;;17.90;99.90;;;;;;5031940;28;20048;-37
2022/07/07 08:24:57;;;;;;;3.85;0.85;;;17.90;99.90;;;;;;5034049;28;20021;-38
2022/07/07 08:27:23;;;;;;;6.53;1.40;;;17.80;99.90;;;;;;5033061;28;20026;-37
2022/07/07 08:29:49;;;;;;;3.33;0.38;;;18.00;99.90;;;;;;5033811;28;20542;-34
2022/07/07 08:32:15;;;;;;;1.58;0.40;;;18.00;99.90;;;;;;5010684;28;20029;-38
2022/07/07 08:34:42;;;;;;;1.10;0.50;;;18.20;99.90;;;;;;5033706;28;20025;-37
2022/07/07 08:37:08;;;;;;;5.25;0.50;;;18.10;99.90;;;;;;5013204;28;20477;-37
2022/07/07 08:39:34;;;;;;;2.20;0.30;;;18.00;99.90;;;;;;5031638;28;20033;-41
2022/07/07 08:42:00;;;;;;;2.53;0.60;;;17.70;99.90;;;;;;5027042;28;20565;-36
2022/07/07 08:44:26;;;;;;;5.60;0.77;;;17.70;99.90;;;;;;5032288;28;20473;-39
2022/07/07 08:46:51;;;;;;;5.45;0.75;;;17.80;99.90;;;;;;5027528;28;20034;-33
2022/07/07 08:49:17;;;;;;;3.95;0.35;;;18.00;99.90;;;;;;5030297;28;20028;-37
2022/07/07 08:51:45;;;;;;;6.10;1.02;;;18.10;99.90;;;;;;5030393;28;20120;-38
2022/07/07 08:54:12;;;;;;;5.10;0.30;;;18.00;99.90;;;;;;5032434;28;20032;-37
2022/07/07 08:56:39;;;;;;;4.80;0.57;;;17.90;99.90;;;;;;5014159;28;20064;-35
2022/07/07 08:59:06;;;;;;;1.10;0.40;;;17.70;99.90;;;;;;5032933;28;20025;-38
2022/07/07 09:01:32;;;;;;;;;;;17.30;99.90;;;;;;5032817;28;20068;-37
2022/07/07 09:03:59;;;;;;;1.63;0.77;;;16.90;99.90;;;;;;5034320;28;20357;-38
2022/07/07 09:06:24;;;;;;;7.65;0.82;;;16.70;99.90;;;;;;5031597;28;20040;-38
2022/07/07 09:08:51;;;;;;;2.78;0.50;;;16.70;99.90;;;;;;5033736;28;20025;-38
2022/07/07 09:11:30;;;;;;;2.53;0.55;;;16.80;99.90;;;;;;5032657;28;20490;-38
2022/07/07 09:14:09;;;;;;;1.23;0.38;;;17.10;99.90;;;;;;5033277;28;20508;-37
2022/07/07 09:16:38;;;;;;;3.70;1.02;;;17.50;99.90;;;;;;5029175;28;20037;-33
2022/07/07 09:19:25;;;;;;;2.17;1.00;;;18.00;99.90;;;;;;5031795;28;20079;-38
2022/07/07 09:21:51;;;;;;;4.13;0.85;;;18.50;99.90;;;;;;5015294;28;20159;-29
2022/07/07 09:24:17;;;;;;;2.22;0.55;;;18.60;99.90;;;;;;5014488;28;20469;-39
2022/07/07 09:26:52;;;;;;;1.55;0.60;;;18.70;99.90;;;;;;5032619;28;20100;-33
2022/07/07 09:29:20;;;;;;;5.60;1.02;;;18.50;99.90;;;;;;5033724;28;20385;-33
2022/07/07 09:31:57;;;;;;;0.90;0.80;;;18.00;99.90;;;;;;5033585;28;20017;-34
2022/07/07 09:34:27;;;;;;;4.57;0.60;;;17.40;99.90;;;;;;5031402;28;20470;-30
2022/07/07 09:39:46;;;;;;;4.05;0.73;;;17.00;99.90;;;;;;5024912;28;20465;-35
2022/07/07 09:42:27;;;;;;;9.77;1.05;;;17.00;99.90;;;;;;5031886;28;20065;-32
2022/07/07 09:44:53;;;;;;;2.83;0.60;;;17.10;99.90;;;;;;5032331;28;20025;-35
2022/07/07 09:47:20;;;;;;;3.20;0.82;;;17.40;99.90;;;;;;5033190;28;20405;-33
2022/07/07 09:50:07;;;;;;;2.58;0.57;;;17.80;99.90;;;;;;5024867;28;20024;-34
2022/07/07 09:52:35;;;;;;;3.80;0.77;;;17.80;99.90;;;;;;5027578;28;20499;-32
2022/07/07 09:55:03;;;;;;;7.40;0.73;;;17.60;99.90;;;;;;5015375;28;20021;-33
2022/07/07 09:57:29;;;;;;;6.18;1.10;;;17.40;99.90;;;;;;5032816;28;20030;-37
2022/07/07 09:59:55;;;;;;;8.43;1.25;;;17.30;99.90;;;;;;5032748;28;20247;-33
2022/07/07 10:02:29;;;;;;;4.25;1.27;;;17.30;99.90;;;;;;5029178;28;20034;-32
2022/07/07 10:04:57;;;;;;;6.35;1.13;;;17.20;99.90;;;;;;5030043;28;20021;-32
2022/07/07 10:07:25;;;;;;;4.97;0.98;;;17.20;99.90;;;;;;5027593;28;20367;-34
2022/07/07 10:09:53;;;;;;;10.10;1.30;;;17.30;99.90;;;;;;5029506;28;20029;-38
2022/07/07 10:12:24;;;;;;;2.42;0.70;;;17.50;99.90;;;;;;5031514;28;20489;-38
2022/07/07 10:14:54;;;;;;;3.72;0.82;;;17.40;99.90;;;;;;5008516;28;20029;-34
2022/07/07 10:17:21;;;;;;;3.75;0.82;;;17.30;99.90;;;;;;5012942;28;20517;-35
2022/07/07 10:19:47;;;;;;;1.33;1.10;;;17.30;99.90;;;;;;5029393;28;20021;-34
2022/07/07 10:22:14;;;;;;;7.28;1.75;;;17.40;99.90;;;;;;5027892;28;20170;-37
2022/07/07 10:24:41;;;;;;;3.45;1.05;;;17.50;99.90;;;;;;5029477;28;20057;-33
2022/07/07 10:27:07;;;;;;;3.55;1.02;;;17.70;99.90;;;;;;5029596;28;20049;-34
2022/07/07 10:29:49;;;;;;;5.95;1.05;;;17.70;99.90;;;;;;5031294;28;20048;-33
2022/07/07 10:32:28;;;;;;;6.57;1.38;;;17.90;99.90;;;;;;5030994;28;20036;-31
2022/07/07 10:34:56;;;;;;;2.45;1.17;;;18.20;99.90;;;;;;5021884;28;20520;-34
2022/07/07 10:37:23;;;;;;;5.30;0.98;;;18.20;99.90;;;;;;5025122;28;20377;-35
2022/07/07 10:39:51;;;;;;;3.07;1.10;;;18.10;99.90;;;;;;5031234;28;20038;-31
2022/07/07 10:42:16;;;;;;;3.20;1.05;;;17.90;99.90;;;;;;5034267;28;20025;-49
2022/07/07 10:44:47;;;;;;;14.45;2.60;;;17.50;99.90;;;;;;5018576;28;20109;-38
2022/07/07 10:47:13;;;;;;;5.38;1.55;;;17.40;99.90;;;;;;5018505;28;20045;-36
2022/07/07 10:49:41;;;;;;;9.68;0.93;;;17.20;99.90;;;;;;5035108;28;20469;-37
2022/07/07 10:52:10;;;;;;;;;;;17.10;99.90;;;;;;5036878;28;20477;-40
2022/07/07 10:54:44;;;;;;;8.70;1.13;;;17.20;99.90;;;;;;5036427;28;19905;-43
2022/07/07 10:57:17;;;;;;;1.95;0.82;;;17.30;99.90;;;;;;5019106;28;20036;-39
2022/07/07 11:00:09;;;;;;;2.95;1.40;;;17.60;99.90;;;;;;5035685;28;20543;-38
2022/07/07 11:03:05;;;;;;;1.58;0.60;;;17.70;99.90;;;;;;5036365;28;20455;-39
2022/07/07 11:05:33;;;;;;;2.72;0.90;;;17.90;99.90;;;;;;5025605;28;20087;-38
2022/07/07 11:07:59;;;;;;;7.07;1.00;;;17.70;99.90;;;;;;5036278;28;20021;-37
2022/07/07 11:10:36;;;;;;;6.25;0.80;;;17.60;99.90;;;;;;5036442;28;20523;-38
2022/07/07 11:13:36;;;;;;;4.93;1.27;;;17.30;99.90;;;;;;5036250;28;20025;-37
2022/07/07 11:16:11;;;;;;;3.92;0.70;;;17.10;99.90;;;;;;4976479;28;20063;-33
2022/07/07 11:18:37;;;;;;;2.88;0.75;;;17.00;99.90;;;;;;5016302;28;20024;-38
2022/07/07 11:21:05;;;;;;;1.38;0.43;;;16.90;99.90;;;;;;5016797;28;20026;-38
2022/07/07 11:23:54;;;;;;;2.33;0.80;;;16.90;99.90;;;;;;5036021;28;20017;-38
2022/07/07 11:26:25;;;;;;;1.52;0.63;;;16.90;99.90;;;;;;5036168;28;20514;-37
2022/07/07 11:28:55;;;;;;;3.30;0.88;;;17.10;99.90;;;;;;5034949;28;20101;-37
2022/07/07 11:31:21;;;;;;;9.00;1.00;;;17.10;99.90;;;;;;5034888;28;20108;-40
2022/07/07 11:33:54;;;;;;;3.30;1.33;;;17.10;99.90;;;;;;5034324;28;20032;-38
2022/07/07 11:36:21;;;;;;;5.60;1.20;;;17.00;99.90;;;;;;5017803;28;20037;-38
2022/07/07 11:38:51;;;;;;;3.08;1.00;;;16.90;99.90;;;;;;5034773;28;20100;-38
2022/07/07 11:41:17;;;;;;;4.28;0.75;;;16.80;99.90;;;;;;5016007;28;20041;-38
2022/07/07 11:43:43;;;;;;;5.68;0.80;;;16.70;99.90;;;;;;5022071;28;20362;-39
2022/07/07 11:46:09;;;;;;;6.95;2.03;;;16.90;99.90;;;;;;5034309;28;20064;-44
2022/07/07 11:48:37;;;;;;;3.22;0.95;;;17.00;99.90;;;;;;5035616;28;20032;-40
2022/07/07 11:51:04;;;;;;;4.00;1.95;;;17.00;99.90;;;;;;5027112;28;20545;-38
2022/07/07 11:53:30;;;;;;;8.02;0.82;;;17.10;99.90;;;;;;5013477;28;20028;-39
2022/07/07 11:55:56;;;;;;;11.95;1.67;;;17.30;99.90;;;;;;5017597;28;20545;-38
2022/07/07 11:58:21;;;;;;;8.38;1.60;;;17.40;99.90;;;;;;5035600;28;20033;-37
2022/07/07 12:00:51;;;;;;;7.95;1.40;;;17.60;99.90;;;;;;5035458;28;20025;-53
2022/07/07 12:03:16;;;;;;;6.38;1.30;;;17.70;99.90;;;;;;5035426;28;20017;-56
2022/07/07 12:05:46;;;;;;;9.70;2.08;;;17.70;99.90;;;;;;5035380;28;20032;-39
2022/07/07 12:08:13;;;;;;;10.50;1.30;;;17.80;99.90;;;;;;5034346;28;20486;-38
2022/07/07 12:10:49;;;;;;;9.20;1.50;;;17.70;99.90;;;;;;5035416;28;20525;-37
2022/07/07 12:13:15;;;;;;;5.93;1.30;;;17.60;99.90;;;;;;5035387;28;20499;-38
2022/07/07 12:15:46;;;;;;;9.15;1.35;;;17.40;99.90;;;;;;5035103;28;20025;-38
2022/07/07 12:18:12;;;;;;;8.85;1.40;;;17.50;99.90;;;;;;5035278;28;20380;-38
2022/07/07 12:20:39;;;;;;;5.90;1.15;;;17.60;99.90;;;;;;5034900;28;20018;-38
2022/07/07 12:23:07;;;;;;;3.70;1.42;;;17.70;99.90;;;;;;5034878;28;20013;-37
2022/07/07 12:25:34;;;;;;;10.27;1.50;;;18.00;99.90;;;;;;5023028;28;20543;-37
2022/07/07 12:28:05;;;;;;;10.82;1.95;;;18.10;99.90;;;;;;5015180;28;20418;-37
2022/07/07 12:30:55;;;;;;;10.90;1.08;;;18.30;99.90;;;;;;4996992;28;20564;-37
2022/07/07 12:33:31;;;;;;;4.85;1.20;;;18.40;99.90;;;;;;5004486;28;20037;-37
2022/07/07 12:36:18;;;;;;;10.52;1.33;;;18.40;99.90;;;;;;5014818;28;20026;-36
2022/07/07 12:38:48;;;;;;;8.20;0.97;;;18.50;99.90;;;;;;5027331;28;20022;-37
2022/07/07 12:41:29;;;;;;;5.55;1.35;;;18.40;99.90;;;;;;5032841;28;20029;-30
2022/07/07 12:44:15;;;;;;;18.65;1.67;;;18.50;99.90;;;;;;5034114;28;20028;-29
2022/07/07 12:46:41;;;;;;;11.77;1.80;;;18.50;99.90;;;;;;5034273;28;20046;-47
2022/07/07 12:49:07;;;;;;;13.57;2.63;;;18.50;99.90;;;;;;5004073;28;20521;-38
2022/07/07 12:51:33;;;;;;;9.38;1.80;;;18.60;99.90;;;;;;5029091;28;20025;-38
2022/07/07 12:54:00;;;;;;;7.13;1.25;;;18.80;99.90;;;;;;5034311;28;20477;-38
2022/07/07 12:56:37;;;;;;;8.27;1.27;;;19.00;99.90;;;;;;5034209;28;20045;-37
2022/07/07 12:59:21;;;;;;;13.45;1.77;;;19.20;99.90;;;;;;5031084;28;20041;-37
2022/07/07 13:01:56;;;;;;;8.27;1.27;;;19.50;99.90;;;;;;5032839;28;20426;-38